createdAt,value
2019-02-02T00:02:10.784Z,95657.31
2019-02-02T00:04:41.699Z,95652.47
2019-02-02T00:07:12.727Z,95651.95
2019-02-02T00:09:43.701Z,95666.14
2019-02-02T00:12:14.676Z,95665.17
2019-02-02T00:14:45.728Z,95655.35
2019-02-02T00:17:16.634Z,95665.49
2019-02-02T00:19:47.577Z,95667.61
2019-02-02T00:22:18.626Z,95665.17
2019-02-02T00:24:49.574Z,95671.79
2019-02-02T00:27:20.618Z,95670.22
2019-02-02T00:29:51.619Z,95659.05
2019-02-02T00:32:22.700Z,95661.33
2019-02-02T00:34:53.986Z,95660.48
2019-02-02T00:37:25.035Z,95679.98
2019-02-02T00:39:56.036Z,95670.98
2019-02-02T00:42:27.004Z,95673.46
2019-02-02T00:44:58.068Z,95660.85
2019-02-02T00:47:29.110Z,95662.27
2019-02-02T00:50:00.343Z,95668.75
2019-02-02T00:52:31.318Z,95675.65
2019-02-02T00:55:02.398Z,95674.05
2019-02-02T00:57:33.414Z,95674.05
2019-02-02T01:00:06.987Z,95660.38
2019-02-02T01:02:38.003Z,95651.39
2019-02-02T01:05:12.050Z,95642.34
2019-02-02T01:07:43.425Z,95655.25
2019-02-02T01:10:20.219Z,95658.96
2019-02-02T01:12:51.820Z,95669.30
2019-02-02T01:15:22.992Z,95659.41
2019-02-02T01:17:54.451Z,95646.12
2019-02-02T01:20:25.928Z,95631.31
2019-02-02T01:22:56.995Z,95620.34
2019-02-02T01:25:28.057Z,95622.69
2019-02-02T01:28:05.485Z,95629.46
2019-02-02T01:30:31.857Z,95635.72
2019-02-02T01:33:02.888Z,95634.44
2019-02-02T01:35:33.828Z,95633.89
2019-02-02T01:38:05.051Z,95642.88
2019-02-02T01:40:36.153Z,95630.48
2019-02-02T01:43:07.227Z,95636.84
2019-02-02T01:45:38.278Z,95646.66
2019-02-02T01:48:09.231Z,95649.09
2019-02-02T01:50:40.188Z,95642.30
2019-02-02T01:53:11.379Z,95653.39
2019-02-02T01:55:42.527Z,95652.05
2019-02-02T01:58:17.244Z,95663.95
2019-02-02T02:00:48.183Z,95673.16
2019-02-02T02:03:19.256Z,95670.97
2019-02-02T02:05:50.237Z,95674.76
2019-02-02T02:08:21.246Z,95681.11
2019-02-02T02:10:52.228Z,95683.96
2019-02-02T02:13:23.428Z,95687.36
2019-02-02T02:15:54.407Z,95690.31
2019-02-02T02:18:25.382Z,95703.15
2019-02-02T02:20:56.336Z,95683.19
2019-02-02T02:23:27.503Z,95661.77
2019-02-02T02:25:58.395Z,95637.48
2019-02-02T02:28:29.377Z,95637.23
2019-02-02T02:31:00.350Z,95655.48
2019-02-02T02:33:31.390Z,95659.33
2019-02-02T02:36:02.362Z,95653.81
2019-02-02T02:38:33.320Z,95645.57
2019-02-02T02:41:04.367Z,95628.06
2019-02-02T02:43:35.513Z,95623.21
2019-02-02T02:46:06.569Z,95614.39
2019-02-02T02:48:37.607Z,95618.37
2019-02-02T02:51:08.590Z,95626.06
2019-02-02T02:53:39.698Z,95634.09
2019-02-02T02:56:10.943Z,95637.48
2019-02-02T02:58:42.122Z,95640.11
2019-02-02T03:01:13.040Z,95632.94
2019-02-02T03:03:44.063Z,95637.00
2019-02-02T03:06:15.147Z,95634.89
2019-02-02T03:08:46.314Z,95638.86
2019-02-02T03:11:17.315Z,95636.13
2019-02-02T03:13:48.315Z,95619.36
2019-02-02T03:16:19.349Z,95602.88
2019-02-02T03:18:50.390Z,95612.08
2019-02-02T03:21:21.537Z,95610.19
2019-02-02T03:23:52.518Z,95618.89
2019-02-02T03:26:23.583Z,95637.80
2019-02-02T03:28:54.564Z,95640.58
2019-02-02T03:31:25.593Z,95649.34
2019-02-02T03:33:56.799Z,95660.52
2019-02-02T03:36:29.020Z,95666.92
2019-02-02T03:39:00.163Z,95658.46
2019-02-02T03:41:31.059Z,95659.36
2019-02-02T03:44:01.975Z,95672.36
2019-02-02T03:46:33.018Z,95704.73
2019-02-02T03:49:04.065Z,95703.45
2019-02-02T03:51:35.075Z,95711.13
2019-02-02T03:54:08.971Z,95694.47
2019-02-02T03:56:38.855Z,95679.53
2019-02-02T03:59:09.972Z,95679.69
2019-02-02T04:01:40.943Z,95683.20
2019-02-02T04:04:12.190Z,95692.18
2019-02-02T04:06:43.291Z,95692.23
2019-02-02T04:09:14.398Z,95687.17
2019-02-02T04:11:45.433Z,95695.01
2019-02-02T04:14:16.670Z,95706.72
2019-02-02T04:16:47.767Z,95722.93
2019-02-02T04:19:18.830Z,95731.84
2019-02-02T04:21:49.760Z,95721.98
2019-02-02T04:24:20.766Z,95708.33
2019-02-02T04:26:51.742Z,95700.31
2019-02-02T04:29:22.739Z,95696.91
2019-02-02T04:31:53.763Z,95694.89
2019-02-02T04:34:24.913Z,95692.00
2019-02-02T04:36:55.959Z,95699.80
2019-02-02T04:39:26.922Z,95703.20
2019-02-02T04:41:57.940Z,95700.25
2019-02-02T04:44:28.855Z,95709.36
2019-02-02T04:46:59.803Z,95721.84
2019-02-02T04:49:30.857Z,95720.89
2019-02-02T04:52:01.737Z,95723.90
2019-02-02T04:54:32.614Z,95718.00
2019-02-02T04:57:03.526Z,95726.13
2019-02-02T04:59:34.502Z,95721.78
2019-02-02T05:02:05.502Z,95718.83
2019-02-02T05:04:36.468Z,95700.06
2019-02-02T05:07:07.434Z,95703.08
2019-02-02T05:09:38.416Z,95718.06
2019-02-02T05:12:09.442Z,95725.36
2019-02-02T05:14:40.494Z,95740.42
2019-02-02T05:17:11.429Z,95751.36
2019-02-02T05:19:42.378Z,95757.77
2019-02-02T05:22:13.446Z,95761.05
2019-02-02T05:24:44.458Z,95756.12
2019-02-02T05:27:15.429Z,95742.22
2019-02-02T05:29:46.379Z,95743.05
2019-02-02T05:32:17.376Z,95741.72
2019-02-02T05:34:48.406Z,95741.72
2019-02-02T05:37:19.356Z,95752.80
2019-02-02T05:39:50.432Z,95735.25
2019-02-02T05:42:21.344Z,95738.20
2019-02-02T05:44:52.295Z,95751.02
2019-02-02T05:47:23.379Z,95770.93
2019-02-02T05:49:55.948Z,95785.86
2019-02-02T05:52:27.019Z,95786.70
2019-02-02T05:54:57.952Z,95795.62
2019-02-02T05:57:28.986Z,95793.35
2019-02-02T05:59:59.958Z,95775.34
2019-02-02T06:02:31.142Z,95773.50
2019-02-02T06:05:02.196Z,95771.17
2019-02-02T06:07:33.152Z,95780.59
2019-02-02T06:10:05.646Z,95781.05
2019-02-02T06:12:36.600Z,95763.48
2019-02-02T06:15:08.648Z,95758.18
2019-02-02T06:17:39.790Z,95771.00
2019-02-02T06:20:15.598Z,95767.55
2019-02-02T06:22:46.614Z,95758.41
2019-02-02T06:25:17.587Z,95761.31
2019-02-02T06:27:49.563Z,95767.16
2019-02-02T06:30:25.252Z,95768.94
2019-02-02T06:32:56.242Z,95766.95
2019-02-02T06:35:27.211Z,95770.67
2019-02-02T06:37:58.415Z,95780.89
2019-02-02T06:40:29.454Z,95793.11
2019-02-02T06:43:00.502Z,95797.41
2019-02-02T06:45:34.197Z,95803.92
2019-02-02T06:48:05.761Z,95816.75
2019-02-02T06:50:36.645Z,95817.14
2019-02-02T06:53:07.758Z,95821.64
2019-02-02T06:55:38.630Z,95829.99
2019-02-02T06:58:09.703Z,95837.80
2019-02-02T07:00:40.685Z,95854.98
2019-02-02T07:03:12.494Z,95862.95
2019-02-02T07:05:43.463Z,95869.66
2019-02-02T07:08:14.516Z,95865.75
2019-02-02T07:10:45.517Z,95858.45
2019-02-02T07:13:16.427Z,95863.52
2019-02-02T07:15:47.477Z,95870.94
2019-02-02T07:18:18.437Z,95882.09
2019-02-02T07:20:49.922Z,95880.30
2019-02-02T07:23:20.872Z,95886.66
2019-02-02T07:25:51.944Z,95871.16
2019-02-02T07:28:22.931Z,95875.25
2019-02-02T07:30:53.965Z,95873.91
2019-02-02T07:33:25.385Z,95884.35
2019-02-02T07:35:56.329Z,95892.64
2019-02-02T07:38:27.394Z,95898.67
2019-02-02T07:40:58.439Z,95917.70
2019-02-02T07:43:29.811Z,95914.45
2019-02-02T07:46:00.839Z,95918.98
2019-02-02T07:48:31.897Z,95919.32
2019-02-02T07:51:02.965Z,95914.25
2019-02-02T07:53:33.954Z,95915.42
2019-02-02T07:56:04.994Z,95913.98
2019-02-02T07:58:36.015Z,95941.19
2019-02-02T08:01:06.988Z,95951.39
2019-02-02T08:03:38.035Z,95958.05
2019-02-02T08:06:09.227Z,95946.39
2019-02-02T08:08:40.738Z,95940.16
2019-02-02T08:11:13.805Z,95934.20
2019-02-02T08:13:44.800Z,95935.56
2019-02-02T08:16:15.765Z,95935.48
2019-02-02T08:18:46.812Z,95946.84
2019-02-02T08:21:17.786Z,95941.27
2019-02-02T08:23:48.703Z,95938.36
2019-02-02T08:26:19.660Z,95933.39
2019-02-02T08:28:50.766Z,95927.79
2019-02-02T08:31:21.822Z,95945.64
2019-02-02T08:33:52.840Z,95936.33
2019-02-02T08:36:23.932Z,95944.47
2019-02-02T08:38:54.902Z,95953.41
2019-02-02T08:41:25.972Z,95963.23
2019-02-02T08:43:56.940Z,95973.05
2019-02-02T08:46:28.105Z,95980.31
2019-02-02T08:48:59.262Z,95985.50
2019-02-02T08:51:30.987Z,95991.98
2019-02-02T08:54:03.552Z,96002.13
2019-02-02T08:56:34.932Z,96000.70
2019-02-02T08:59:06.022Z,95997.56
2019-02-02T09:01:37.128Z,95995.95
2019-02-02T09:04:08.204Z,96002.83
2019-02-02T09:06:39.432Z,96017.41
2019-02-02T09:09:10.476Z,96022.59
2019-02-02T09:11:41.440Z,96021.64
2019-02-02T09:14:12.471Z,96027.41
2019-02-02T09:16:43.344Z,96029.36
2019-02-02T09:19:14.347Z,96023.39
2019-02-02T09:21:45.300Z,96027.75
2019-02-02T09:24:16.219Z,96026.38
2019-02-02T09:26:47.256Z,96035.31
2019-02-02T09:29:18.152Z,96046.81
2019-02-02T09:31:49.104Z,96054.91
2019-02-02T09:34:20.071Z,96065.23
2019-02-02T09:36:50.958Z,96066.02
2019-02-02T09:39:21.993Z,96068.92
2019-02-02T09:41:52.989Z,96076.95
2019-02-02T09:44:23.979Z,96074.12
2019-02-02T09:46:54.935Z,96073.02
2019-02-02T09:49:25.969Z,96072.06
2019-02-02T09:51:57.028Z,96080.78
2019-02-02T09:54:27.954Z,96086.19
2019-02-02T09:56:59.072Z,96097.70
2019-02-02T09:59:29.974Z,96107.20
2019-02-02T10:02:01.006Z,96103.66
2019-02-02T10:04:31.928Z,96103.03
2019-02-02T10:07:02.904Z,96112.47
2019-02-02T10:09:33.860Z,96116.27
2019-02-02T10:12:05.084Z,96114.27
2019-02-02T10:14:36.008Z,96125.44
2019-02-02T10:17:06.931Z,96124.88
2019-02-02T10:19:37.951Z,96120.81
2019-02-02T10:22:08.923Z,96119.80
2019-02-02T10:24:39.888Z,96119.92
2019-02-02T10:27:10.806Z,96120.87
2019-02-02T10:29:41.843Z,96121.27
2019-02-02T10:32:12.875Z,96123.24
2019-02-02T10:34:43.878Z,96120.55
2019-02-02T10:37:14.780Z,96122.23
2019-02-02T10:39:45.816Z,96116.41
2019-02-02T10:42:16.872Z,96121.16
2019-02-02T10:44:47.847Z,96128.31
2019-02-02T10:47:18.833Z,96118.05
2019-02-02T10:49:51.467Z,96115.33
2019-02-02T10:52:22.492Z,96109.33
2019-02-02T10:54:53.459Z,96122.08
2019-02-02T10:57:24.417Z,96144.95
2019-02-02T10:59:55.384Z,96148.47
2019-02-02T11:02:26.281Z,96134.12
2019-02-02T11:04:57.316Z,96135.63
2019-02-02T11:07:28.334Z,96140.91
2019-02-02T11:09:59.415Z,96144.58
2019-02-02T11:12:30.512Z,96140.59
2019-02-02T11:15:01.659Z,96129.93
2019-02-02T11:17:32.948Z,96127.36
2019-02-02T11:20:06.981Z,96137.78
2019-02-02T11:22:37.935Z,96138.33
2019-02-02T11:25:11.180Z,96143.45
2019-02-02T11:27:42.197Z,96152.19
2019-02-02T11:30:15.925Z,96156.78
2019-02-02T11:32:46.988Z,96159.57
2019-02-02T11:35:19.417Z,96163.87
2019-02-02T11:37:50.652Z,96164.91
2019-02-02T11:40:30.064Z,96159.55
2019-02-02T11:43:01.162Z,96160.57
2019-02-02T11:45:32.272Z,96162.36
2019-02-02T11:48:03.337Z,96159.30
2019-02-02T11:50:34.289Z,96159.55
2019-02-02T11:53:05.409Z,96153.63
2019-02-02T11:55:36.451Z,96159.80
2019-02-02T11:58:07.462Z,96172.64
2019-02-02T12:00:40.798Z,96170.16
2019-02-02T12:03:11.887Z,96165.88
2019-02-02T12:05:42.999Z,96172.44
2019-02-02T12:08:14.145Z,96168.97
2019-02-02T12:10:45.212Z,96161.60
2019-02-02T12:13:29.441Z,96162.11
2019-02-02T12:16:00.365Z,96159.41
2019-02-02T12:18:31.504Z,96165.75
2019-02-02T12:21:02.564Z,96173.07
2019-02-02T12:23:33.554Z,96168.48
2019-02-02T12:26:04.943Z,96175.89
2019-02-02T12:28:35.915Z,96179.98
2019-02-02T12:31:07.189Z,96183.27
2019-02-02T12:33:38.314Z,96182.97
2019-02-02T12:36:09.298Z,96187.66
2019-02-02T12:38:40.482Z,96183.60
2019-02-02T12:41:11.539Z,96191.05
2019-02-02T12:43:42.718Z,96190.48
2019-02-02T12:46:13.835Z,96196.70
2019-02-02T12:49:06.369Z,96201.77
2019-02-02T12:51:38.019Z,96199.70
2019-02-02T12:54:09.071Z,96198.89
2019-02-02T12:56:40.103Z,96198.03
2019-02-02T12:59:11.171Z,96202.46
2019-02-02T13:01:42.207Z,96200.73
2019-02-02T13:04:13.202Z,96201.98
2019-02-02T13:06:44.186Z,96197.48
2019-02-02T13:09:15.240Z,96206.16
2019-02-02T13:11:46.234Z,96207.80
2019-02-02T13:14:17.195Z,96205.41
2019-02-02T13:16:50.086Z,96215.82
2019-02-02T13:19:20.845Z,96213.80
2019-02-02T13:21:51.841Z,96223.64
2019-02-02T13:24:22.851Z,96224.25
2019-02-02T13:26:53.831Z,96236.16
2019-02-02T13:29:24.836Z,96240.34
2019-02-02T13:31:55.869Z,96243.06
2019-02-02T13:34:26.858Z,96250.90
2019-02-02T13:36:58.163Z,96246.27
2019-02-02T13:39:29.407Z,96248.69
2019-02-02T13:42:00.442Z,96243.91
2019-02-02T13:44:31.478Z,96247.59
2019-02-02T13:47:02.386Z,96248.97
2019-02-02T13:49:33.346Z,96256.16
2019-02-02T13:52:04.499Z,96250.91
2019-02-02T13:54:35.383Z,96260.08
2019-02-02T13:57:06.375Z,96274.94
2019-02-02T13:59:40.660Z,96276.56
2019-02-02T14:02:11.526Z,96273.41
2019-02-02T14:04:42.454Z,96272.06
2019-02-02T14:07:18.228Z,96272.33
2019-02-02T14:09:46.167Z,96267.00
2019-02-02T14:12:17.212Z,96281.05
2019-02-02T14:14:48.220Z,96278.05
2019-02-02T14:17:19.237Z,96289.27
2019-02-02T14:19:50.287Z,96299.07
2019-02-02T14:22:21.297Z,96295.11
2019-02-02T14:24:52.332Z,96302.60
2019-02-02T14:27:23.344Z,96304.55
2019-02-02T14:29:56.206Z,96303.34
2019-02-02T14:32:27.239Z,96307.14
2019-02-02T14:34:58.159Z,96304.55
2019-02-02T14:37:29.284Z,96299.48
2019-02-02T14:40:00.411Z,96300.60
2019-02-02T14:42:34.256Z,96296.14
2019-02-02T14:45:08.685Z,96294.68
2019-02-02T14:47:39.719Z,96304.67
2019-02-02T14:50:18.710Z,96311.87
2019-02-02T14:52:49.345Z,96328.97
2019-02-02T14:55:22.910Z,96341.36
2019-02-02T14:57:53.972Z,96348.63
2019-02-02T15:00:29.725Z,96349.34
2019-02-02T15:03:03.280Z,96348.19
2019-02-02T15:05:42.429Z,96349.24
2019-02-02T15:08:06.379Z,96354.52
2019-02-02T15:10:38.960Z,96356.77
2019-02-02T15:13:10.304Z,96369.98
2019-02-02T15:15:41.260Z,96370.19
2019-02-02T15:18:12.224Z,96364.80
2019-02-02T15:20:43.248Z,96361.20
2019-02-02T15:23:14.269Z,96362.44
2019-02-02T15:25:45.323Z,96362.24
2019-02-02T15:28:16.243Z,96372.31
2019-02-02T15:30:47.150Z,96370.20
2019-02-02T15:33:18.160Z,96372.92
2019-02-02T15:35:49.144Z,96364.05
2019-02-02T15:38:20.121Z,96360.25
2019-02-02T15:40:58.873Z,96374.91
2019-02-02T15:43:23.980Z,96385.17
2019-02-02T15:45:56.534Z,96387.67
2019-02-02T15:48:27.632Z,96385.22
2019-02-02T15:50:58.685Z,96393.27
2019-02-02T15:53:29.848Z,96390.22
2019-02-02T15:56:00.855Z,96392.71
2019-02-02T15:58:31.802Z,96393.36
2019-02-02T16:01:02.812Z,96392.30
2019-02-02T16:03:33.800Z,96392.34
2019-02-02T16:06:05.019Z,96392.03
2019-02-02T16:08:36.052Z,96399.02
2019-02-02T16:11:07.137Z,96395.41
2019-02-02T16:13:38.044Z,96392.41
2019-02-02T16:16:09.108Z,96393.93
2019-02-02T16:18:40.009Z,96400.77
2019-02-02T16:21:11.137Z,96404.63
2019-02-02T16:23:42.113Z,96405.74
2019-02-02T16:26:13.142Z,96406.37
2019-02-02T16:28:44.052Z,96406.03
2019-02-02T16:31:15.043Z,96422.39
2019-02-02T16:33:46.082Z,96434.33
2019-02-02T16:36:17.145Z,96432.52
2019-02-02T16:38:48.251Z,96436.06
2019-02-02T16:41:19.357Z,96434.98
2019-02-02T16:43:50.261Z,96439.93
2019-02-02T16:46:21.446Z,96441.61
2019-02-02T16:48:52.437Z,96448.38
2019-02-02T16:51:24.968Z,96461.58
2019-02-02T16:53:55.949Z,96463.58
2019-02-02T16:56:27.067Z,96473.64
2019-02-02T16:58:58.134Z,96484.08
2019-02-02T17:01:29.439Z,96488.14
2019-02-02T17:04:04.419Z,96483.56
2019-02-02T17:06:33.123Z,96490.90
2019-02-02T17:09:06.441Z,96498.96
2019-02-02T17:11:37.503Z,96504.75
2019-02-02T17:14:08.612Z,96509.28
2019-02-02T17:16:39.753Z,96516.75
2019-02-02T17:19:10.793Z,96517.37
2019-02-02T17:21:41.687Z,96529.77
2019-02-02T17:24:12.596Z,96528.92
2019-02-02T17:26:43.726Z,96539.02
2019-02-02T17:29:14.751Z,96542.56
2019-02-02T17:31:45.868Z,96540.13
2019-02-02T17:34:26.941Z,96535.93
2019-02-02T17:36:49.609Z,96535.80
2019-02-02T17:39:20.663Z,96537.69
2019-02-02T17:41:51.542Z,96532.31
2019-02-02T17:44:22.497Z,96543.03
2019-02-02T17:46:53.383Z,96543.91
2019-02-02T17:49:24.513Z,96554.47
2019-02-02T17:51:55.723Z,96565.08
2019-02-02T17:54:26.696Z,96568.55
2019-02-02T17:56:57.746Z,96575.69
2019-02-02T17:59:30.429Z,96583.64
2019-02-02T18:02:01.472Z,96591.23
2019-02-02T18:04:39.521Z,96588.20
2019-02-02T18:07:06.783Z,96595.09
2019-02-02T18:09:37.757Z,96595.83
2019-02-02T18:12:08.752Z,96596.78
2019-02-02T18:14:39.792Z,96596.83
2019-02-02T18:17:10.846Z,96597.37
2019-02-02T18:19:41.901Z,96602.97
2019-02-02T18:22:12.793Z,96607.33
2019-02-02T18:24:44.663Z,96605.91
2019-02-02T18:27:15.750Z,96610.25
2019-02-02T18:29:46.762Z,96617.89
2019-02-02T18:32:17.712Z,96619.02
2019-02-02T18:34:51.260Z,96623.38
2019-02-02T18:37:21.196Z,96619.91
2019-02-02T18:39:52.212Z,96624.22
2019-02-02T18:42:23.298Z,96623.44
2019-02-02T18:44:54.441Z,96617.50
2019-02-02T18:47:25.393Z,96625.41
2019-02-02T18:49:56.452Z,96626.36
2019-02-02T18:52:27.368Z,96628.29
2019-02-02T18:54:58.430Z,96628.93
2019-02-02T18:57:29.377Z,96637.66
2019-02-02T19:00:00.526Z,96642.09
2019-02-02T19:02:31.507Z,96662.80
2019-02-02T19:05:04.158Z,96660.28
2019-02-02T19:10:16.689Z,96656.27
2019-02-02T19:12:48.852Z,96670.86
2019-02-02T19:15:19.875Z,96673.67
2019-02-02T19:17:53.265Z,96671.88
2019-02-02T19:20:27.810Z,96671.85
2019-02-02T19:23:00.043Z,96681.71
2019-02-02T19:25:31.149Z,96688.06
2019-02-02T19:28:02.252Z,96683.67
2019-02-02T19:30:34.565Z,96679.19
2019-02-02T19:33:06.141Z,96676.53
2019-02-02T19:35:37.263Z,96686.55
2019-02-02T19:38:09.378Z,96693.99
2019-02-02T19:40:41.620Z,96679.27
2019-02-02T19:43:15.852Z,96694.94
2019-02-02T19:45:47.803Z,96696.84
2019-02-02T19:48:18.882Z,96703.02
2019-02-02T19:50:50.010Z,96702.42
2019-02-02T19:53:21.015Z,96714.34
2019-02-02T19:55:52.231Z,96718.89
2019-02-02T19:58:23.732Z,96718.57
2019-02-02T20:00:54.819Z,96726.44
2019-02-02T20:03:29.107Z,96727.48
2019-02-02T20:06:00.025Z,96723.16
2019-02-02T20:08:32.302Z,96729.20
2019-02-02T20:11:04.304Z,96739.53
2019-02-02T20:13:36.520Z,96738.69
2019-02-02T20:16:07.483Z,96745.43
2019-02-02T20:18:38.492Z,96742.66
2019-02-02T20:21:09.536Z,96752.30
2019-02-02T20:23:40.531Z,96750.80
2019-02-02T20:26:11.583Z,96745.53
2019-02-02T20:28:42.652Z,96742.92
2019-02-02T20:31:13.653Z,96737.26
2019-02-02T20:33:44.538Z,96737.70
2019-02-02T20:36:15.493Z,96738.35
2019-02-02T20:38:46.563Z,96747.64
2019-02-02T20:41:17.717Z,96739.08
2019-02-02T20:43:48.680Z,96728.56
2019-02-02T20:46:19.795Z,96740.33
2019-02-02T20:48:50.808Z,96738.53
2019-02-02T20:51:21.768Z,96739.56
2019-02-02T20:53:52.783Z,96745.95
2019-02-02T20:56:23.857Z,96767.34
2019-02-02T20:58:54.771Z,96766.27
2019-02-02T21:01:25.924Z,96750.57
2019-02-02T21:03:56.915Z,96781.70
2019-02-02T21:06:27.879Z,96793.47
2019-02-02T21:08:58.972Z,96786.80
2019-02-02T21:11:30.374Z,96773.26
2019-02-02T21:14:01.398Z,96772.96
2019-02-02T21:16:32.438Z,96781.31
2019-02-02T21:19:03.500Z,96786.77
2019-02-02T21:21:34.398Z,96793.88
2019-02-02T21:24:05.552Z,96801.95
2019-02-02T21:26:36.512Z,96808.22
2019-02-02T21:29:07.579Z,96823.61
2019-02-02T21:31:38.575Z,96823.17
2019-02-02T21:34:09.586Z,96829.47
2019-02-02T21:36:54.276Z,96836.98
2019-02-02T21:39:30.865Z,96832.37
2019-02-02T21:42:01.834Z,96830.95
2019-02-02T21:44:42.847Z,96836.89
2019-02-02T21:47:05.704Z,96850.53
2019-02-02T21:49:36.574Z,96856.88
2019-02-02T21:52:07.594Z,96860.17
2019-02-02T21:54:38.705Z,96857.50
2019-02-02T21:57:09.667Z,96858.95
2019-02-02T21:59:40.915Z,96864.59
2019-02-02T22:02:11.798Z,96865.08
2019-02-02T22:04:43.011Z,96868.94
2019-02-02T22:07:14.418Z,96868.14
2019-02-02T22:09:45.387Z,96866.37
2019-02-02T22:12:16.372Z,96862.38
2019-02-02T22:14:47.370Z,96856.31
2019-02-02T22:17:18.402Z,96854.66
2019-02-02T22:19:49.722Z,96854.09
2019-02-02T22:22:20.757Z,96859.19
2019-02-02T22:24:51.673Z,96867.27
2019-02-02T22:27:22.637Z,96869.72
2019-02-02T22:29:53.719Z,96870.97
2019-02-02T22:32:24.880Z,96859.38
2019-02-02T22:34:55.826Z,96851.13
2019-02-02T22:37:28.512Z,96850.72
2019-02-02T22:39:59.590Z,96855.88
2019-02-02T22:42:30.890Z,96859.34
2019-02-02T22:45:01.986Z,96855.13
2019-02-02T22:47:32.908Z,96857.61
2019-02-02T22:50:05.606Z,96860.53
2019-02-02T22:52:36.593Z,96860.13
2019-02-02T22:55:11.185Z,96853.83
2019-02-02T22:57:42.277Z,96870.73
2019-02-02T23:00:29.881Z,96875.69
2019-02-02T23:03:01.994Z,96871.75
2019-02-02T23:05:58.963Z,96883.73
2019-02-02T23:08:49.421Z,96884.58
2019-02-02T23:11:26.369Z,96882.89
2019-02-02T23:14:09.061Z,96885.27
2019-02-02T23:16:40.181Z,96883.98
2019-02-02T23:19:11.204Z,96888.36
2019-02-02T23:21:42.257Z,96880.81
2019-02-02T23:24:13.339Z,96880.41
2019-02-02T23:26:44.410Z,96876.67
2019-02-02T23:29:15.387Z,96877.11
2019-02-02T23:31:46.284Z,96875.38
2019-02-02T23:34:17.231Z,96886.92
2019-02-02T23:36:51.801Z,96894.48
2019-02-02T23:39:20.846Z,96898.73
2019-02-02T23:41:51.788Z,96897.80
2019-02-02T23:44:22.783Z,96903.04
2019-02-02T23:46:53.685Z,96906.50
2019-02-02T23:49:24.715Z,96899.66
2019-02-02T23:51:56.106Z,96899.58
2019-02-02T23:54:27.120Z,96892.50
2019-02-02T23:56:58.096Z,96892.11
2019-02-02T23:59:29.171Z,96890.02
